Time;durP1;ratioP1;P1;durP2;ratioP2;P2;SDS_P1;SDS_P2;PMS_P1;PMS_P2;Temp;Humidity;BMP_temperature;BMP_pressure;BME280_temperature;BME280_humidity;BME280_pressure;Samples;Min_cycle;Max_cycle;Signal;HPM_P1;HPM_P2
2022/07/31 00:01:38;;;;;;;9.18;7.60;;;17.90;99.90;;;;;;5090840;28;20238;-70
2022/07/31 00:04:05;;;;;;;11.00;8.05;;;17.90;99.90;;;;;;5088582;28;20683;-70
2022/07/31 00:06:36;;;;;;;12.38;8.25;;;17.90;99.90;;;;;;5084011;28;20213;-69
2022/07/31 00:09:03;;;;;;;10.43;7.60;;;17.80;99.90;;;;;;5083598;28;20243;-69
2022/07/31 00:11:30;;;;;;;10.82;8.13;;;17.70;99.90;;;;;;5093471;28;20283;-69
2022/07/31 00:13:57;;;;;;;11.52;8.50;;;17.60;99.90;;;;;;5086380;28;20270;-69
2022/07/31 00:16:25;;;;;;;9.50;8.20;;;17.60;99.90;;;;;;5078631;28;20198;-69
2022/07/31 00:18:52;;;;;;;10.82;8.23;;;17.70;99.90;;;;;;5083558;28;20194;-70
2022/07/31 00:21:19;;;;;;;11.80;8.55;;;17.70;99.90;;;;;;5087499;28;20284;-69
2022/07/31 00:23:48;;;;;;;11.73;8.75;;;17.80;99.90;;;;;;5082053;28;20202;-69
2022/07/31 00:26:15;;;;;;;10.40;7.53;;;17.70;99.90;;;;;;5083615;28;20654;-69
2022/07/31 00:28:41;;;;;;;11.32;8.00;;;17.70;99.90;;;;;;5087129;28;20221;-70
2022/07/31 00:31:08;;;;;;;11.35;8.40;;;17.80;99.90;;;;;;5082225;28;20607;-70
2022/07/31 00:33:35;;;;;;;11.00;7.65;;;17.60;99.90;;;;;;5082902;28;20198;-69
2022/07/31 00:36:02;;;;;;;8.73;7.65;;;17.70;99.90;;;;;;5079846;28;20234;-69
2022/07/31 00:38:29;;;;;;;8.85;7.53;;;17.70;99.90;;;;;;5082492;28;20281;-73
2022/07/31 00:40:58;;;;;;;9.82;7.78;;;17.70;99.90;;;;;;5080772;28;20586;-72
2022/07/31 00:43:25;;;;;;;9.93;7.72;;;17.70;99.90;;;;;;5085913;28;20316;-73
2022/07/31 00:45:52;;;;;;;15.55;8.07;;;17.70;99.90;;;;;;5089598;28;20278;-73
2022/07/31 00:48:19;;;;;;;8.82;7.53;;;17.70;99.90;;;;;;5088333;28;20198;-73
2022/07/31 00:50:46;;;;;;;9.80;8.00;;;17.70;99.90;;;;;;5092598;28;20236;-73
2022/07/31 00:53:13;;;;;;;9.85;8.18;;;17.70;99.90;;;;;;5086498;28;20194;-73
2022/07/31 00:55:40;;;;;;;9.63;7.50;;;17.70;99.90;;;;;;5089843;28;20670;-73
2022/07/31 00:58:08;;;;;;;14.07;7.43;;;17.70;99.90;;;;;;5082977;28;20233;-73
2022/07/31 01:00:35;;;;;;;9.18;6.70;;;17.70;99.90;;;;;;5089045;28;20194;-73
2022/07/31 01:03:03;;;;;;;8.25;6.85;;;17.70;99.90;;;;;;5087969;28;20197;-73
2022/07/31 01:05:31;;;;;;;12.10;7.20;;;17.70;99.90;;;;;;5091959;28;20651;-73
2022/07/31 01:07:58;;;;;;;9.20;6.20;;;17.70;99.90;;;;;;5082460;28;20229;-73
2022/07/31 01:10:35;;;;;;;14.73;7.43;;;17.60;99.90;;;;;;5083246;28;20256;-73
2022/07/31 01:13:08;;;;;;;7.53;6.18;;;17.60;99.90;;;;;;5084781;28;20210;-73
2022/07/31 01:15:38;;;;;;;7.75;6.75;;;17.50;99.90;;;;;;5085327;28;20232;-73
2022/07/31 01:18:06;;;;;;;9.40;6.78;;;17.60;99.90;;;;;;5087681;28;20206;-73
2022/07/31 01:20:34;;;;;;;8.35;6.47;;;17.50;99.90;;;;;;5091756;28;20263;-73
2022/07/31 01:23:18;;;;;;;7.80;6.05;;;17.50;99.90;;;;;;5084792;28;20303;-73
2022/07/31 01:25:58;;;;;;;8.90;7.10;;;17.50;99.90;;;;;;5088761;28;20198;-73
2022/07/31 01:28:57;;;;;;;9.18;6.55;;;17.40;99.90;;;;;;5081344;28;20285;-73
2022/07/31 01:31:30;;;;;;;8.20;6.00;;;17.40;99.90;;;;;;5058871;28;20214;-73
2022/07/31 01:34:02;;;;;;;9.23;6.50;;;17.30;99.90;;;;;;5082097;28;20659;-73
2022/07/31 01:36:33;;;;;;;8.90;6.30;;;17.20;99.90;;;;;;5085820;28;20270;-73
2022/07/31 01:39:01;;;;;;;7.78;6.15;;;17.40;99.90;;;;;;5081395;28;20275;-73
2022/07/31 01:41:33;;;;;;;6.78;5.32;;;17.40;99.90;;;;;;5086882;28;20208;-73
2022/07/31 01:44:03;;;;;;;8.45;5.70;;;17.40;99.90;;;;;;5078591;28;20248;-73
2022/07/31 01:46:34;;;;;;;7.10;5.50;;;17.30;99.90;;;;;;5074624;28;20206;-73
2022/07/31 01:49:03;;;;;;;6.22;5.60;;;17.30;99.90;;;;;;5085966;28;20238;-73
2022/07/31 01:51:31;;;;;;;9.05;5.93;;;17.20;99.90;;;;;;5077993;28;20230;-73
2022/07/31 01:54:02;;;;;;;7.38;5.68;;;17.10;99.90;;;;;;5083941;28;20612;-73
2022/07/31 01:56:31;;;;;;;6.20;5.22;;;17.20;99.90;;;;;;5084253;28;20198;-73
2022/07/31 01:59:00;;;;;;;7.25;5.43;;;17.20;99.90;;;;;;5090490;28;20197;-73
2022/07/31 02:01:30;;;;;;;7.05;5.32;;;17.20;99.90;;;;;;5085961;28;20198;-73
2022/07/31 02:04:00;;;;;;;7.85;6.20;;;17.20;99.90;;;;;;5086299;28;20209;-73
2022/07/31 02:06:27;;;;;;;8.35;5.90;;;17.10;99.90;;;;;;5089281;28;20201;-73
2022/07/31 02:08:56;;;;;;;8.27;6.07;;;17.20;99.90;;;;;;5092130;28;20229;-73
2022/07/31 02:11:23;;;;;;;8.75;6.07;;;17.10;99.90;;;;;;5084559;28;20629;-73
2022/07/31 02:13:52;;;;;;;9.82;6.45;;;17.10;99.90;;;;;;5077803;28;20233;-73
2022/07/31 02:16:20;;;;;;;7.65;6.50;;;17.00;99.90;;;;;;5086338;28;20218;-73
2022/07/31 02:18:50;;;;;;;8.05;6.85;;;17.00;99.90;;;;;;5086019;28;20213;-73
2022/07/31 02:21:19;;;;;;;10.23;6.90;;;16.90;99.90;;;;;;5087066;28;20259;-73
2022/07/31 02:23:46;;;;;;;8.38;7.00;;;16.80;99.90;;;;;;5086370;28;20444;-73
2022/07/31 02:26:15;;;;;;;9.40;6.82;;;16.80;99.90;;;;;;5088253;28;20236;-73
2022/07/31 02:28:46;;;;;;;7.72;6.53;;;16.70;99.90;;;;;;5090340;28;20325;-73
2022/07/31 02:31:16;;;;;;;6.90;6.10;;;16.70;99.90;;;;;;5083740;28;20681;-73
2022/07/31 02:33:47;;;;;;;8.23;6.03;;;16.80;99.90;;;;;;5083395;28;20691;-73
2022/07/31 02:36:16;;;;;;;8.57;6.03;;;16.60;99.90;;;;;;5089110;28;21266;-73
2022/07/31 02:38:46;;;;;;;11.25;6.65;;;16.50;99.90;;;;;;5085726;28;20216;-73
2022/07/31 02:41:14;;;;;;;9.90;6.60;;;16.50;99.90;;;;;;5085270;28;20212;-73
2022/07/31 02:43:42;;;;;;;7.90;6.10;;;16.50;99.90;;;;;;5084466;28;20233;-73
2022/07/31 02:46:09;;;;;;;9.38;7.45;;;16.50;99.90;;;;;;5090276;28;20244;-73
2022/07/31 02:48:37;;;;;;;8.80;7.43;;;16.50;99.90;;;;;;5088987;28;20612;-73
2022/07/31 02:51:04;;;;;;;9.77;7.00;;;16.60;99.90;;;;;;5086091;28;20651;-73
2022/07/31 02:53:32;;;;;;;7.55;6.75;;;16.50;99.90;;;;;;5075869;28;20193;-73
2022/07/31 02:56:03;;;;;;;7.80;6.63;;;16.40;99.90;;;;;;5086313;28;20313;-73
2022/07/31 02:58:30;;;;;;;7.78;7.03;;;16.30;99.90;;;;;;5083892;28;20201;-73
2022/07/31 03:01:01;;;;;;;8.77;7.03;;;16.30;99.90;;;;;;5085904;28;20297;-73
2022/07/31 03:03:28;;;;;;;9.60;7.43;;;16.20;99.90;;;;;;5089681;28;20807;-73
2022/07/31 03:05:55;;;;;;;9.13;7.57;;;16.20;99.90;;;;;;5085860;28;20648;-73
2022/07/31 03:08:22;;;;;;;9.95;8.00;;;16.20;99.90;;;;;;5087273;28;20247;-73
2022/07/31 03:10:50;;;;;;;11.15;8.15;;;16.20;99.90;;;;;;5083564;28;20687;-73
2022/07/31 03:13:20;;;;;;;10.40;7.10;;;16.20;99.90;;;;;;5086896;28;20206;-73
2022/07/31 03:15:50;;;;;;;12.32;8.75;;;16.30;99.90;;;;;;5084058;28;20249;-73
2022/07/31 03:18:20;;;;;;;10.77;7.20;;;16.30;99.90;;;;;;5077469;28;20255;-73
2022/07/31 03:20:50;;;;;;;6.90;6.20;;;16.20;99.90;;;;;;5088738;28;20209;-73
2022/07/31 03:23:20;;;;;;;10.15;8.23;;;16.00;99.90;;;;;;5088220;28;20201;-73
2022/07/31 03:25:49;;;;;;;10.02;7.88;;;16.00;99.90;;;;;;5084947;28;20212;-73
2022/07/31 03:28:18;;;;;;;9.52;7.65;;;16.10;99.90;;;;;;5084190;28;20228;-73
2022/07/31 03:30:45;;;;;;;11.25;7.72;;;16.10;99.90;;;;;;5088268;28;20206;-73
2022/07/31 03:33:12;;;;;;;9.32;7.85;;;16.10;99.90;;;;;;5083474;28;20206;-72
2022/07/31 03:35:40;;;;;;;10.25;8.13;;;16.00;99.90;;;;;;5073922;28;20354;-73
2022/07/31 03:38:07;;;;;;;8.63;7.80;;;15.90;99.90;;;;;;5086346;28;20262;-73
2022/07/31 03:40:34;;;;;;;8.75;7.85;;;15.90;99.90;;;;;;5074307;28;20663;-73
2022/07/31 03:43:04;;;;;;;9.35;7.72;;;15.90;99.90;;;;;;5076726;28;20285;-73
2022/07/31 03:45:34;;;;;;;9.70;7.72;;;16.00;99.90;;;;;;5086044;28;20247;-73
2022/07/31 03:48:01;;;;;;;9.55;7.75;;;16.10;99.90;;;;;;5083699;28;20265;-73
2022/07/31 03:50:29;;;;;;;8.27;7.43;;;16.00;99.90;;;;;;5083971;28;20284;-73
2022/07/31 03:52:57;;;;;;;9.85;7.75;;;16.00;99.90;;;;;;5083160;28;20327;-73
2022/07/31 03:55:25;;;;;;;9.82;8.10;;;16.00;99.90;;;;;;5080154;28;20225;-73
2022/07/31 03:57:53;;;;;;;9.60;8.18;;;15.90;99.90;;;;;;5086751;28;20202;-67
2022/07/31 04:00:25;;;;;;;10.93;7.57;;;15.80;99.90;;;;;;5074692;28;20190;-67
2022/07/31 04:02:55;;;;;;;9.55;8.07;;;15.90;99.90;;;;;;5086614;28;20577;-67
2022/07/31 04:05:22;;;;;;;9.50;8.50;;;15.70;99.90;;;;;;5075313;28;20224;-67
2022/07/31 04:07:50;;;;;;;11.88;9.10;;;15.70;99.90;;;;;;5085002;28;20209;-67
2022/07/31 04:10:17;;;;;;;12.40;8.63;;;15.80;99.90;;;;;;5089311;28;20247;-67
2022/07/31 04:12:44;;;;;;;9.60;8.25;;;15.70;99.90;;;;;;5085820;28;20248;-68
2022/07/31 04:15:11;;;;;;;11.88;8.10;;;15.80;99.90;;;;;;5082563;28;20774;-67
2022/07/31 04:17:38;;;;;;;9.35;7.60;;;15.80;99.90;;;;;;5085561;28;20198;-68
2022/07/31 04:20:08;;;;;;;10.77;7.65;;;15.90;99.90;;;;;;5081846;28;20252;-67
2022/07/31 04:22:35;;;;;;;11.25;7.55;;;16.00;99.90;;;;;;5085284;28;20258;-67
2022/07/31 04:25:02;;;;;;;9.52;7.85;;;15.90;99.90;;;;;;5087979;28;20202;-67
2022/07/31 04:27:29;;;;;;;10.63;8.68;;;16.10;99.90;;;;;;5078081;28;20656;-67
2022/07/31 04:29:56;;;;;;;11.05;8.77;;;16.20;99.90;;;;;;5078286;28;20195;-67
2022/07/31 04:32:24;;;;;;;9.13;7.97;;;16.20;99.90;;;;;;5079724;28;20201;-67
2022/07/31 04:34:51;;;;;;;8.93;8.13;;;16.10;99.90;;;;;;5078174;28;20260;-67
2022/07/31 04:37:20;;;;;;;9.82;8.10;;;16.10;99.90;;;;;;5087801;28;20223;-67
2022/07/31 04:39:47;;;;;;;9.25;8.18;;;16.20;99.90;;;;;;5090205;28;20233;-68
2022/07/31 04:42:14;;;;;;;14.02;8.65;;;16.20;99.90;;;;;;5082590;28;20239;-68
2022/07/31 04:44:41;;;;;;;10.95;8.70;;;16.30;99.90;;;;;;5089862;28;20205;-67
2022/07/31 04:47:08;;;;;;;9.63;7.50;;;16.60;99.90;;;;;;5084923;28;20255;-68
2022/07/31 04:49:35;;;;;;;8.55;7.07;;;16.60;99.90;;;;;;5071379;28;20193;-68
2022/07/31 04:52:03;;;;;;;7.55;6.78;;;16.60;99.90;;;;;;5084466;28;20213;-67
2022/07/31 04:54:31;;;;;;;8.05;6.78;;;16.60;99.90;;;;;;5078101;28;20202;-67
2022/07/31 04:56:58;;;;;;;7.90;7.07;;;16.60;99.90;;;;;;5076239;28;20249;-68
2022/07/31 04:59:25;;;;;;;10.35;8.68;;;16.60;99.90;;;;;;5090621;28;20448;-67
2022/07/31 05:01:52;;;;;;;9.88;8.13;;;16.80;99.90;;;;;;5087559;28;20646;-68
2022/07/31 05:04:20;;;;;;;10.35;7.80;;;16.90;99.90;;;;;;5089704;28;20193;-68
2022/07/31 05:06:48;;;;;;;9.82;8.25;;;16.90;99.90;;;;;;5093797;28;20198;-68
2022/07/31 05:09:18;;;;;;;8.18;7.03;;;16.90;99.90;;;;;;5085809;28;20202;-68
2022/07/31 05:11:47;;;;;;;8.00;6.53;;;17.00;99.90;;;;;;5081269;28;20267;-68
2022/07/31 05:14:16;;;;;;;9.15;6.97;;;17.00;99.90;;;;;;5079136;28;20237;-67
2022/07/31 05:16:44;;;;;;;7.93;6.22;;;17.00;99.90;;;;;;5088852;28;20330;-68
2022/07/31 05:19:11;;;;;;;7.15;6.45;;;17.00;99.90;;;;;;5086759;28;20283;-68
2022/07/31 05:21:39;;;;;;;7.05;6.35;;;17.00;99.90;;;;;;5088624;28;20198;-68
2022/07/31 05:24:06;;;;;;;11.15;6.95;;;17.00;99.90;;;;;;5087004;28;20229;-68
2022/07/31 05:26:33;;;;;;;9.15;7.00;;;16.80;99.90;;;;;;5088997;28;20690;-67
2022/07/31 05:29:02;;;;;;;8.55;7.38;;;16.90;99.90;;;;;;5089276;28;20259;-68
2022/07/31 05:31:29;;;;;;;10.23;6.70;;;17.00;99.90;;;;;;5087175;28;20206;-67
2022/07/31 05:33:58;;;;;;;10.38;7.07;;;17.00;99.90;;;;;;5088773;28;20198;-68
2022/07/31 05:36:26;;;;;;;9.75;7.05;;;17.00;99.90;;;;;;5090539;28;20233;-68
2022/07/31 05:38:53;;;;;;;9.90;7.82;;;17.10;99.90;;;;;;5090238;28;20206;-68
2022/07/31 05:41:20;;;;;;;8.48;7.43;;;17.10;99.90;;;;;;5087689;28;20227;-68
2022/07/31 05:43:47;;;;;;;8.57;6.75;;;17.20;99.90;;;;;;5087123;28;20206;-68
2022/07/31 05:46:16;;;;;;;12.63;7.50;;;17.40;99.90;;;;;;5085254;28;20235;-67
2022/07/31 05:48:43;;;;;;;8.32;7.20;;;17.50;99.90;;;;;;5087171;28;20453;-68
2022/07/31 05:51:12;;;;;;;8.48;7.63;;;17.60;99.90;;;;;;5086433;28;20294;-67
2022/07/31 05:53:41;;;;;;;9.35;7.25;;;17.50;99.90;;;;;;5088778;28;20202;-68
2022/07/31 05:56:09;;;;;;;8.32;7.40;;;17.70;99.90;;;;;;5083880;28;20228;-68
2022/07/31 05:58:36;;;;;;;10.23;7.72;;;17.80;99.90;;;;;;5085742;28;20238;-68
2022/07/31 06:01:04;;;;;;;9.32;7.97;;;17.80;99.90;;;;;;5089401;28;20247;-68
2022/07/31 06:03:34;;;;;;;9.75;7.55;;;17.80;99.90;;;;;;5088025;28;20198;-67
2022/07/31 06:06:03;;;;;;;10.00;8.00;;;17.80;99.90;;;;;;5084751;28;20207;-68
2022/07/31 06:08:31;;;;;;;8.60;7.68;;;18.10;99.90;;;;;;5085028;28;20200;-68
2022/07/31 06:10:58;;;;;;;9.75;7.63;;;18.10;99.90;;;;;;5087947;28;20281;-68
2022/07/31 06:13:26;;;;;;;9.40;8.15;;;18.20;99.90;;;;;;5083239;28;20210;-68
2022/07/31 06:15:54;;;;;;;8.25;7.45;;;18.30;99.90;;;;;;5085809;28;20232;-68
2022/07/31 06:18:22;;;;;;;9.90;7.95;;;18.20;99.90;;;;;;5085260;28;20198;-68
2022/07/31 06:20:50;;;;;;;7.85;7.10;;;18.50;99.90;;;;;;5088812;28;20232;-67
2022/07/31 06:23:17;;;;;;;10.75;7.22;;;18.70;99.90;;;;;;5084113;28;20590;-68
2022/07/31 06:25:44;;;;;;;11.25;7.43;;;18.80;99.90;;;;;;5086922;28;20247;-68
2022/07/31 06:28:11;;;;;;;9.48;7.80;;;19.00;99.90;;;;;;5085713;28;20292;-67
2022/07/31 06:30:39;;;;;;;8.45;6.80;;;19.00;99.90;;;;;;5080909;28;20208;-68
2022/07/31 06:33:06;;;;;;;8.32;6.75;;;19.10;99.90;;;;;;5087805;28;20527;-68
2022/07/31 06:35:33;;;;;;;7.63;6.82;;;19.10;99.90;;;;;;5087018;28;20652;-68
2022/07/31 06:38:01;;;;;;;7.05;6.43;;;19.30;99.90;;;;;;5087734;28;20210;-68
2022/07/31 06:40:28;;;;;;;12.15;7.10;;;19.60;99.90;;;;;;5085700;28;20209;-67
2022/07/31 06:42:55;;;;;;;10.07;6.57;;;19.70;99.90;;;;;;5083085;28;20202;-68
2022/07/31 06:45:23;;;;;;;11.80;6.68;;;20.00;99.90;;;;;;5090910;28;20613;-68
2022/07/31 06:47:50;;;;;;;5.68;5.25;;;20.00;99.90;;;;;;5085811;28;20288;-68
2022/07/31 06:50:17;;;;;;;7.10;5.47;;;20.30;99.90;;;;;;5089031;28;20198;-68
2022/07/31 06:52:44;;;;;;;7.75;5.63;;;20.40;99.90;;;;;;5082501;28;20231;-68
2022/07/31 06:55:13;;;;;;;7.22;4.80;;;20.40;99.90;;;;;;5088663;28;20672;-68
2022/07/31 06:57:40;;;;;;;5.97;5.22;;;20.60;99.90;;;;;;5084856;28;20666;-68
2022/07/31 07:00:08;;;;;;;5.05;4.53;;;20.70;99.90;;;;;;5084686;28;20736;-68
2022/07/31 07:02:36;;;;;;;8.13;4.70;;;20.60;99.90;;;;;;5083276;28;20201;-68
2022/07/31 07:05:04;;;;;;;7.70;5.35;;;20.80;99.90;;;;;;5088758;28;21286;-68
2022/07/31 07:07:32;;;;;;;8.07;4.63;;;20.90;99.90;;;;;;5082411;28;20268;-68
2022/07/31 07:09:59;;;;;;;7.05;4.93;;;20.80;99.90;;;;;;5086059;28;20199;-67
2022/07/31 07:12:27;;;;;;;8.00;4.97;;;21.00;99.90;;;;;;5083995;28;20231;-68
2022/07/31 07:14:54;;;;;;;7.72;5.00;;;21.10;99.90;;;;;;5089056;28;20664;-72
2022/07/31 07:17:21;;;;;;;5.50;4.70;;;21.30;99.90;;;;;;5086135;28;20264;-72
2022/07/31 07:19:48;;;;;;;8.50;5.00;;;21.10;99.90;;;;;;5088335;28;20296;-74
2022/07/31 07:22:15;;;;;;;7.85;5.30;;;21.20;99.90;;;;;;5088776;28;20208;-68
2022/07/31 07:24:42;;;;;;;12.23;5.60;;;21.20;99.90;;;;;;5084764;28;20205;-70
2022/07/31 07:27:09;;;;;;;5.85;4.80;;;21.40;99.90;;;;;;5084626;28;20237;-74
2022/07/31 07:29:38;;;;;;;5.78;5.20;;;21.50;99.90;;;;;;5088388;28;20304;-70
2022/07/31 07:32:05;;;;;;;6.07;5.22;;;21.40;99.90;;;;;;5082464;28;20237;-70
2022/07/31 07:34:32;;;;;;;5.80;5.18;;;21.40;99.90;;;;;;5087343;28;20205;-73
2022/07/31 07:36:59;;;;;;;6.47;5.40;;;21.60;99.90;;;;;;5087469;28;20226;-74
2022/07/31 07:39:26;;;;;;;8.60;5.50;;;21.60;99.90;;;;;;5089072;28;20460;-74
2022/07/31 07:41:53;;;;;;;5.03;4.53;;;21.60;99.90;;;;;;5082460;28;20728;-74
2022/07/31 07:44:21;;;;;;;6.07;4.80;;;21.70;99.90;;;;;;5081209;28;20202;-74
2022/07/31 07:46:49;;;;;;;5.57;5.07;;;21.70;99.90;;;;;;5086972;28;20205;-74
2022/07/31 07:49:16;;;;;;;7.75;5.10;;;22.10;99.90;;;;;;5079125;28;20198;-73
2022/07/31 07:51:43;;;;;;;5.30;4.80;;;22.20;99.90;;;;;;5086424;28;20255;-74
2022/07/31 07:54:10;;;;;;;6.55;5.22;;;22.20;99.90;;;;;;5087985;28;20723;-74
2022/07/31 07:56:37;;;;;;;5.20;4.47;;;22.70;99.90;;;;;;5083635;28;20317;-74
2022/07/31 07:59:04;;;;;;;4.80;4.30;;;22.60;99.90;;;;;;5087909;28;20201;-74
2022/07/31 08:01:31;;;;;;;5.28;4.18;;;22.70;99.90;;;;;;5083606;28;20282;-74
2022/07/31 08:04:00;;;;;;;8.02;4.18;;;22.90;99.90;;;;;;5083471;28;20630;-73
2022/07/31 08:06:27;;;;;;;4.10;3.70;;;23.10;99.90;;;;;;5086781;28;20204;-74
2022/07/31 08:08:54;;;;;;;5.18;4.10;;;23.10;99.90;;;;;;5085847;28;20780;-74
2022/07/31 08:11:21;;;;;;;5.78;3.75;;;23.10;99.90;;;;;;5082150;28;20252;-74
2022/07/31 08:13:48;;;;;;;4.85;3.67;;;23.20;99.90;;;;;;5080611;28;20247;-74
2022/07/31 08:16:15;;;;;;;3.83;3.42;;;23.10;99.50;;;;;;5086935;28;20232;-74
2022/07/31 08:18:42;;;;;;;5.78;3.33;;;23.30;99.90;;;;;;5082206;28;20283;-74
2022/07/31 08:21:11;;;;;;;3.83;3.40;;;23.50;99.90;;;;;;5084045;28;20247;-74
2022/07/31 08:23:38;;;;;;;4.63;3.83;;;23.70;99.90;;;;;;5082877;28;20266;-74
2022/07/31 08:26:07;;;;;;;5.32;3.53;;;23.60;94.90;;;;;;5078517;28;20198;-74
2022/07/31 08:28:34;;;;;;;5.05;3.50;;;23.50;99.40;;;;;;5082631;28;20213;-75
2022/07/31 08:31:01;;;;;;;7.25;3.47;;;23.50;98.40;;;;;;5089509;28;20208;-74
2022/07/31 08:33:28;;;;;;;7.07;3.88;;;23.70;95.50;;;;;;5087888;28;20244;-74
2022/07/31 08:35:55;;;;;;;5.50;3.53;;;23.60;92.20;;;;;;5085130;28;20241;-74
2022/07/31 08:38:24;;;;;;;4.40;3.17;;;23.70;89.40;;;;;;5092147;28;20274;-74
2022/07/31 08:40:51;;;;;;;4.28;3.60;;;23.70;90.60;;;;;;5086141;28;20207;-74
2022/07/31 08:43:18;;;;;;;6.10;3.53;;;23.90;88.20;;;;;;5089150;28;20633;-74
2022/07/31 08:45:47;;;;;;;4.90;3.13;;;23.90;83.20;;;;;;5089455;28;20250;-74
2022/07/31 08:48:15;;;;;;;4.72;3.13;;;24.00;77.70;;;;;;5091753;28;20838;-74
2022/07/31 08:50:45;;;;;;;4.57;3.70;;;23.90;79.60;;;;;;5089577;28;20551;-74
2022/07/31 08:53:15;;;;;;;6.72;3.25;;;23.90;73.30;;;;;;5080552;28;20226;-74
2022/07/31 08:55:45;;;;;;;4.45;3.10;;;24.00;73.50;;;;;;5087775;28;20194;-74
2022/07/31 08:58:12;;;;;;;3.75;3.42;;;24.20;74.20;;;;;;5087926;28;20226;-74
2022/07/31 09:00:42;;;;;;;3.67;3.17;;;24.10;72.10;;;;;;5087197;28;20296;-74
2022/07/31 09:03:10;;;;;;;5.00;3.40;;;24.30;61.90;;;;;;5087785;28;20198;-74
2022/07/31 09:05:38;;;;;;;3.65;3.20;;;24.40;65.30;;;;;;5089345;28;20216;-74
2022/07/31 09:08:05;;;;;;;4.10;3.25;;;24.30;54.90;;;;;;5084937;28;20264;-74
2022/07/31 09:10:32;;;;;;;6.30;3.40;;;24.50;56.80;;;;;;5083927;28;20204;-74
2022/07/31 09:13:11;;;;;;;4.43;2.92;;;24.60;60.70;;;;;;5087607;28;20260;-74
2022/07/31 09:15:38;;;;;;;4.25;3.28;;;24.50;52.40;;;;;;5086367;28;20288;-74
2022/07/31 09:18:16;;;;;;;6.25;3.10;;;24.50;51.50;;;;;;5087159;28;20278;-74
2022/07/31 09:20:54;;;;;;;4.93;3.28;;;24.60;52.50;;;;;;5089462;28;20202;-75
2022/07/31 09:23:21;;;;;;;3.92;3.22;;;24.50;53.40;;;;;;5084588;28;20205;-74
2022/07/31 09:25:53;;;;;;;3.15;2.55;;;24.70;50.40;;;;;;5088197;28;20202;-74
2022/07/31 09:28:30;;;;;;;4.43;2.60;;;25.00;47.10;;;;;;5089566;28;20651;-74
2022/07/31 09:30:57;;;;;;;4.50;2.88;;;25.30;48.60;;;;;;5086176;28;20610;-74
2022/07/31 09:33:26;;;;;;;3.35;2.60;;;25.20;41.30;;;;;;5084510;28;20281;-73
2022/07/31 09:35:54;;;;;;;3.58;2.70;;;25.40;45.10;;;;;;5086964;28;20283;-74
2022/07/31 09:38:23;;;;;;;2.92;2.63;;;25.30;47.90;;;;;;5085644;28;20753;-74
2022/07/31 09:40:50;;;;;;;4.00;2.65;;;25.40;46.60;;;;;;5084978;28;20297;-73
2022/07/31 09:43:23;;;;;;;3.63;2.70;;;25.50;39.20;;;;;;5086575;28;20198;-73
2022/07/31 09:45:59;;;;;;;2.97;2.50;;;25.50;37.40;;;;;;5083694;28;20205;-74
2022/07/31 09:48:27;;;;;;;2.83;2.60;;;25.30;39.90;;;;;;5088857;28;20296;-74
2022/07/31 09:50:54;;;;;;;4.80;3.13;;;25.30;42.00;;;;;;5086795;28;20252;-74
2022/07/31 09:53:22;;;;;;;3.38;2.65;;;25.00;36.90;;;;;;5085751;28;20206;-74
2022/07/31 09:55:50;;;;;;;2.92;2.72;;;24.90;37.90;;;;;;5086352;28;20237;-73
2022/07/31 09:58:17;;;;;;;2.90;2.60;;;25.30;34.90;;;;;;5085553;28;20229;-73
2022/07/31 10:00:46;;;;;;;3.28;2.30;;;25.10;35.70;;;;;;5082103;28;20209;-73
2022/07/31 10:03:17;;;;;;;4.15;2.72;;;25.70;39.20;;;;;;5083470;28;20205;-73
2022/07/31 10:05:45;;;;;;;4.13;3.20;;;25.50;34.40;;;;;;5085737;28;20205;-73
2022/07/31 10:08:16;;;;;;;3.72;2.70;;;26.00;36.60;;;;;;5085114;28;20255;-73
2022/07/31 10:10:45;;;;;;;3.28;2.92;;;26.50;35.00;;;;;;5080721;28;20205;-73
2022/07/31 10:13:15;;;;;;;2.80;2.60;;;26.60;34.60;;;;;;5083298;28;20585;-74
2022/07/31 10:15:46;;;;;;;4.55;2.97;;;26.90;29.70;;;;;;5082968;28;20213;-73
2022/07/31 10:18:17;;;;;;;4.63;2.97;;;27.00;26.60;;;;;;5082028;28;20221;-72
2022/07/31 10:20:51;;;;;;;5.60;3.60;;;27.10;28.50;;;;;;5083656;28;20744;-74
2022/07/31 10:23:22;;;;;;;4.43;2.75;;;27.70;28.20;;;;;;5080096;28;20711;-73
2022/07/31 10:25:52;;;;;;;4.60;2.95;;;27.90;26.20;;;;;;5081116;28;20236;-74
2022/07/31 10:28:19;;;;;;;4.97;3.00;;;27.80;23.00;;;;;;5084024;28;20202;-73
2022/07/31 10:30:47;;;;;;;4.22;2.78;;;27.10;23.80;;;;;;5079220;28;20625;-74
2022/07/31 10:33:16;;;;;;;5.13;2.78;;;27.50;25.10;;;;;;5085821;28;20201;-71
2022/07/31 10:35:52;;;;;;;4.00;2.97;;;27.40;23.20;;;;;;5082870;28;20206;-71
2022/07/31 10:38:23;;;;;;;4.75;3.25;;;26.80;20.20;;;;;;5083915;28;20629;-74
2022/07/31 10:40:56;;;;;;;5.07;3.05;;;27.00;19.40;;;;;;5083716;28;20285;-74
2022/07/31 10:43:27;;;;;;;2.97;2.72;;;26.80;19.20;;;;;;5085425;28;20550;-74
2022/07/31 10:45:57;;;;;;;7.95;2.92;;;27.20;21.10;;;;;;5079673;28;20247;-73
2022/07/31 10:48:24;;;;;;;4.55;2.90;;;27.50;18.40;;;;;;5080555;28;20294;-74
2022/07/31 10:51:02;;;;;;;2.80;2.60;;;27.30;19.60;;;;;;5084875;28;21237;-74
2022/07/31 10:53:29;;;;;;;8.90;2.88;;;27.50;23.80;;;;;;5082904;28;20321;-73
2022/07/31 10:56:01;;;;;;;3.83;2.70;;;27.00;21.00;;;;;;5080306;28;20731;-74
2022/07/31 10:58:30;;;;;;;4.70;3.05;;;26.80;21.40;;;;;;5076601;28;20226;-73
2022/07/31 11:01:07;;;;;;;3.80;2.95;;;27.00;21.80;;;;;;5075982;28;20279;-73
2022/07/31 11:03:43;;;;;;;7.47;3.28;;;27.10;23.10;;;;;;5085175;28;20243;-74
2022/07/31 11:06:12;;;;;;;5.60;3.00;;;26.70;21.20;;;;;;5079788;28;20660;-74
2022/07/31 11:08:43;;;;;;;2.90;2.70;;;27.20;24.10;;;;;;5077694;28;20209;-74
2022/07/31 11:11:11;;;;;;;2.70;2.47;;;27.70;23.80;;;;;;5075837;28;20254;-74
2022/07/31 11:13:49;;;;;;;3.45;3.00;;;27.90;21.30;;;;;;5075483;28;20202;-74
2022/07/31 11:16:16;;;;;;;7.00;4.32;;;27.50;19.20;;;;;;5071368;28;20233;-74
2022/07/31 11:18:46;;;;;;;3.70;2.90;;;27.30;19.50;;;;;;5073586;28;20746;-73
2022/07/31 11:21:31;;;;;;;4.93;2.67;;;27.40;20.40;;;;;;5076463;28;20194;-69
2022/07/31 11:24:01;;;;;;;2.72;2.50;;;27.30;18.50;;;;;;5076567;28;20208;-69
2022/07/31 11:26:28;;;;;;;2.40;2.20;;;27.20;13.10;;;;;;5075932;28;20201;-70
2022/07/31 11:28:55;;;;;;;2.30;2.20;;;27.50;16.00;;;;;;5075165;28;21837;-70
2022/07/31 11:31:29;;;;;;;4.22;2.75;;;27.60;13.60;;;;;;5077911;28;20276;-70
2022/07/31 11:33:56;;;;;;;2.60;2.40;;;28.00;14.10;;;;;;5080178;28;20218;-70
2022/07/31 11:36:24;;;;;;;3.65;2.53;;;28.40;14.80;;;;;;5080512;28;20262;-70
2022/07/31 11:38:54;;;;;;;2.33;2.10;;;28.80;12.50;;;;;;5077710;28;20226;-70
2022/07/31 11:41:26;;;;;;;4.80;2.42;;;28.50;11.00;;;;;;5076548;28;20214;-70
2022/07/31 11:43:56;;;;;;;6.45;2.40;;;28.00;10.30;;;;;;5078998;28;20258;-70
2022/07/31 11:46:25;;;;;;;2.78;2.58;;;28.20;13.60;;;;;;5076724;28;20241;-70
2022/07/31 11:48:53;;;;;;;4.32;2.60;;;28.20;11.20;;;;;;5081851;28;20206;-70
2022/07/31 11:51:21;;;;;;;4.90;2.67;;;28.30;12.90;;;;;;5076824;28;20542;-70
2022/07/31 11:53:50;;;;;;;2.83;2.28;;;28.50;11.10;;;;;;5078189;28;20201;-70
2022/07/31 11:56:19;;;;;;;6.55;2.88;;;28.10;11.70;;;;;;5072417;28;20236;-70
2022/07/31 11:58:48;;;;;;;3.10;2.80;;;28.20;14.30;;;;;;5078777;28;20225;-70
2022/07/31 12:01:15;;;;;;;2.65;2.17;;;28.40;12.70;;;;;;5079898;28;20511;-70
2022/07/31 12:03:42;;;;;;;4.07;2.72;;;28.50;11.10;;;;;;5077875;28;20263;-71
2022/07/31 12:06:12;;;;;;;4.68;2.60;;;28.50;11.50;;;;;;5078503;28;20197;-70
2022/07/31 12:08:40;;;;;;;2.40;2.17;;;28.20;11.40;;;;;;5076272;28;20218;-70
2022/07/31 12:11:10;;;;;;;2.97;2.65;;;28.70;12.40;;;;;;5075954;28;20209;-70
2022/07/31 12:13:38;;;;;;;3.75;2.38;;;29.20;9.60;;;;;;5075640;28;20210;-70
2022/07/31 12:16:10;;;;;;;2.58;2.38;;;29.50;8.70;;;;;;5076807;28;20237;-70
2022/07/31 12:18:47;;;;;;;4.38;2.25;;;29.00;8.90;;;;;;5079011;28;20217;-70
2022/07/31 12:21:14;;;;;;;2.65;2.45;;;29.80;9.70;;;;;;5071757;28;20201;-70
2022/07/31 12:23:43;;;;;;;3.00;2.40;;;29.10;9.90;;;;;;5075957;28;20210;-70
2022/07/31 12:26:21;;;;;;;3.10;2.30;;;28.60;6.60;;;;;;5079306;28;20238;-70
2022/07/31 12:28:57;;;;;;;5.22;2.80;;;28.60;8.50;;;;;;5077146;28;20340;-70
2022/07/31 12:31:25;;;;;;;3.00;2.70;;;28.60;8.70;;;;;;5081006;28;20640;-70
2022/07/31 12:33:52;;;;;;;3.30;2.70;;;28.40;8.70;;;;;;5083804;28;20210;-71
2022/07/31 12:36:19;;;;;;;3.83;2.90;;;28.40;8.00;;;;;;5081728;28;20565;-70
2022/07/31 12:38:47;;;;;;;3.15;2.70;;;28.30;8.30;;;;;;5081681;28;20257;-69
2022/07/31 12:41:16;;;;;;;3.70;2.60;;;28.40;9.90;;;;;;5082355;28;20744;-70
2022/07/31 12:43:43;;;;;;;4.25;2.90;;;28.00;9.60;;;;;;5079052;28;20233;-70
2022/07/31 12:46:10;;;;;;;3.30;2.50;;;28.40;11.50;;;;;;5081549;28;20202;-70
2022/07/31 12:48:37;;;;;;;4.50;2.47;;;28.80;12.10;;;;;;5082056;28;20241;-70
2022/07/31 12:51:04;;;;;;;3.55;2.65;;;29.20;12.10;;;;;;5081712;28;20225;-70
2022/07/31 12:53:31;;;;;;;4.65;2.83;;;28.70;9.20;;;;;;5081027;28;20656;-69